Paderborn, Germany

7:11 AM CEST on September 05, 2015 (GMT +0200)
Paderborn-Lippstadt | | Change Station
CLOSE
Current Station
Airport
Location: Paderborn,
Elevation: 699 ft
Nearby Weather Stations

Elev 699 ft 51.61 °N, 8.62 °E | Updated 21 minutes ago

Mostly Cloudy
Mostly Cloudy
52 °F
Feels Like 52 °F
N
8
Wind Variable Wind from WSW

Today
High -- | Low -- °F
--% Chance of Precip.
Yesterday
High -- | Low -- °F
Precip. -- in
6:43 AM 8:03 PM
Waning Gibbous, 52% visible
Pressure 29.89 in
Visibility 5.0 miles
Clouds Mostly Cloudy 700 ft
Mostly Cloudy 2100 ft
Dew Point 50 °F
Humidity 94%
Rainfall 0.00 in
Snow Depth Not available.
UV 0 out of 12
Pollen Not available.
Air Quality Not available.
Flu Activity Not available.
METAR EDLP 050450Z 25007KT 210V300 8000 BKN007 BKN021 11/10 Q1012 RMK ATIS IND
Pressure 29.89 in
Visibility 5.0 miles
Clouds Mostly Cloudy 700 ft
Mostly Cloudy 2100 ft
Dew Point 50 °F
Humidity 94%
Rainfall 0.00 in
Snow Depth Not available.
UV 0 out of 12
Pollen Not available.
Air Quality Not available.
Flu Activity Not available.
METAR EDLP 050450Z 25007KT 210V300 8000 BKN007 BKN021 11/10 Q1012 RMK ATIS IND

10-Day Weather Forecast

×

Almanac

Astronomy

Sep. 05, 2015 Rise Set
Actual Time
Civil Twilight
Nautical Twilight
Astronomical Twilight
Moon
Length of Visible Light
Length of Day
Tomorrow will be .
, % of the Moon is Illuminated

Today's Extremes

Country Highs Country Lows

Community

WunderPhotos

Upload Photos

1,852,426 photos uploaded!

WunderBlogs® & News

Nearby

Air Quality

  Air Quality AQ Index Pollutant
Not available.

Snow Depth

Station Depth Elevation

Earthquake Activity

City Distance Mag. Time & Date
Minimum magnitude displayed is 2.5.

Coastal Water Temperatures

Place Temperature

Stations

Nearby Weather Stations

Station Location Temp. Windchill Dew Point Humidity Wind Precip. Elev Updated Type